createdAt,value
2023-04-23T00:01:28.320Z,1.38
2023-04-23T00:04:34.958Z,1.45
2023-04-23T00:07:38.519Z,0.93
2023-04-23T00:10:41.901Z,1.37
2023-04-23T00:13:47.625Z,1.30
2023-04-23T00:16:51.246Z,1.23
2023-04-23T00:19:55.882Z,1.30
2023-04-23T00:22:59.086Z,1.27
2023-04-23T00:26:02.064Z,1.15
2023-04-23T00:29:05.270Z,1.20
2023-04-23T00:32:08.849Z,1.17
2023-04-23T00:35:13.479Z,1.63
2023-04-23T00:38:16.689Z,1.45
2023-04-23T00:41:20.697Z,1.95
2023-04-23T00:44:24.181Z,1.10
2023-04-23T00:47:27.403Z,1.37
2023-04-23T00:50:31.782Z,1.40
2023-04-23T00:53:35.281Z,1.48
2023-04-23T00:56:38.463Z,1.13
2023-04-23T00:59:41.705Z,1.52
2023-04-23T01:02:46.039Z,1.83
2023-04-23T01:05:51.095Z,1.77
2023-04-23T01:08:54.106Z,1.98
2023-04-23T01:11:58.632Z,1.75
2023-04-23T01:15:01.673Z,1.13
2023-04-23T01:18:07.840Z,1.50
2023-04-23T01:21:13.322Z,1.85
2023-04-23T01:24:18.033Z,1.92
2023-04-23T01:27:22.446Z,1.85
2023-04-23T01:30:26.961Z,1.80
2023-04-23T01:33:30.561Z,1.40
2023-04-23T01:36:34.177Z,1.45
2023-04-23T01:39:38.809Z,1.60
2023-04-23T01:42:42.388Z,1.80
2023-04-23T01:45:45.675Z,2.35
2023-04-23T01:48:48.940Z,1.80
2023-04-23T01:52:12.474Z,1.98
2023-04-23T01:55:15.680Z,1.60
2023-04-23T01:58:19.411Z,1.58
2023-04-23T02:01:22.450Z,2.38
2023-04-23T02:04:25.755Z,1.77
2023-04-23T02:07:30.168Z,1.92
2023-04-23T02:10:33.382Z,1.70
2023-04-23T02:13:36.557Z,1.70
2023-04-23T02:16:40.084Z,2.22
2023-04-23T02:19:43.073Z,1.90
2023-04-23T02:22:48.306Z,1.80
2023-04-23T02:25:52.374Z,1.77
2023-04-23T02:29:11.672Z,2.08
2023-04-23T02:32:14.690Z,1.95
2023-04-23T02:35:17.875Z,2.30
2023-04-23T02:38:20.914Z,2.35
2023-04-23T02:41:23.965Z,2.20
2023-04-23T02:44:28.374Z,2.15
2023-04-23T02:47:31.409Z,2.90
2023-04-23T02:50:35.065Z,2.47
2023-04-23T02:53:38.423Z,2.30
2023-04-23T02:56:41.774Z,2.83
2023-04-23T02:59:46.522Z,2.17
2023-04-23T03:02:49.729Z,2.38
2023-04-23T03:06:11.926Z,2.63
2023-04-23T03:09:15.159Z,2.53
2023-04-23T03:12:18.189Z,2.97
2023-04-23T03:15:21.305Z,2.90
2023-04-23T03:18:24.405Z,2.13
2023-04-23T03:21:28.788Z,2.47
2023-04-23T03:24:32.613Z,3.17
2023-04-23T03:27:35.606Z,2.85
2023-04-23T03:30:38.890Z,2.35
2023-04-23T03:33:42.145Z,2.97
2023-04-23T03:36:48.662Z,2.90
2023-04-23T03:39:51.886Z,2.70
2023-04-23T03:42:54.854Z,3.35
2023-04-23T03:45:57.936Z,3.22
2023-04-23T03:49:01.170Z,3.50
2023-04-23T03:52:06.094Z,3.67
2023-04-23T03:55:10.377Z,3.42
2023-04-23T04:01:16.644Z,2.70
2023-04-23T04:04:19.828Z,2.83
2023-04-23T04:07:24.444Z,3.43
2023-04-23T04:10:27.442Z,3.90
2023-04-23T04:13:30.400Z,3.72
2023-04-23T04:16:33.483Z,3.35
2023-04-23T04:19:36.656Z,3.80
2023-04-23T04:22:41.007Z,3.40
2023-04-23T04:25:45.729Z,4.15
2023-04-23T04:28:48.809Z,3.83
2023-04-23T04:31:51.983Z,3.35
2023-04-23T04:34:55.301Z,3.42
2023-04-23T04:37:59.920Z,3.70
2023-04-23T04:41:03.128Z,3.70
2023-04-23T04:44:07.366Z,4.05
2023-04-23T04:50:13.912Z,4.15
2023-04-23T04:53:18.152Z,3.55
2023-04-23T04:59:27.156Z,3.40
2023-04-23T05:02:30.395Z,4.10
2023-04-23T05:05:34.333Z,3.60
2023-04-23T05:08:39.061Z,4.05
2023-04-23T05:11:42.223Z,3.45
2023-04-23T05:14:45.417Z,3.55
2023-04-23T05:17:50.262Z,3.65
2023-04-23T05:21:12.029Z,3.92
2023-04-23T05:24:14.974Z,3.80
2023-04-23T05:27:17.919Z,3.97
2023-04-23T05:30:21.075Z,4.30
2023-04-23T05:33:24.957Z,3.38
2023-04-23T05:36:31.639Z,4.45
2023-04-23T05:39:34.621Z,4.05
2023-04-23T05:42:38.445Z,3.65
2023-04-23T05:45:41.979Z,4.38
2023-04-23T05:48:44.965Z,4.00
2023-04-23T05:51:49.605Z,3.35
2023-04-23T05:54:52.662Z,3.30
2023-04-23T05:57:55.628Z,3.40
2023-04-23T06:00:58.902Z,4.03
2023-04-23T06:04:02.068Z,4.10
2023-04-23T06:07:07.158Z,3.57
2023-04-23T06:10:10.862Z,3.63
2023-04-23T06:13:13.841Z,3.63
2023-04-23T06:16:16.919Z,3.95
2023-04-23T06:19:19.982Z,3.92
2023-04-23T06:22:24.341Z,3.95
2023-04-23T06:25:27.420Z,4.20
2023-04-23T06:28:30.523Z,4.00
2023-04-23T06:31:33.550Z,4.55
2023-04-23T06:34:38.605Z,3.80
2023-04-23T06:37:46.485Z,3.60
2023-04-23T06:40:49.685Z,3.85
2023-04-23T06:43:52.647Z,4.05
2023-04-23T06:46:55.786Z,5.32
2023-04-23T06:49:59.645Z,4.78
2023-04-23T06:53:04.407Z,5.03
2023-04-23T06:56:07.793Z,4.45
2023-04-23T06:59:10.990Z,4.73
2023-04-23T07:02:14.171Z,5.22
2023-04-23T07:05:17.571Z,5.35
2023-04-23T07:08:22.426Z,5.67
2023-04-23T07:11:26.146Z,5.85
2023-04-23T07:14:29.192Z,5.53
2023-04-23T07:17:32.285Z,5.28
2023-04-23T07:20:35.411Z,6.00
2023-04-23T07:23:39.974Z,4.57
2023-04-23T07:26:43.123Z,5.90
2023-04-23T07:29:46.290Z,5.82
2023-04-23T07:32:49.350Z,5.95
2023-04-23T07:35:52.613Z,6.00
2023-04-23T07:38:57.009Z,6.05
2023-04-23T07:42:00.227Z,5.93
2023-04-23T07:45:03.302Z,6.28
2023-04-23T07:48:06.692Z,7.05
2023-04-23T07:51:10.045Z,6.87
2023-04-23T07:54:14.514Z,8.67
2023-04-23T07:57:17.464Z,8.02
2023-04-23T08:00:20.608Z,6.82
2023-04-23T08:03:25.296Z,8.20
2023-04-23T08:06:30.129Z,7.70
2023-04-23T08:09:34.522Z,9.30
2023-04-23T08:12:37.889Z,9.20
2023-04-23T08:15:40.986Z,10.17
2023-04-23T08:18:48.436Z,10.98
2023-04-23T08:22:01.177Z,11.02
2023-04-23T08:25:06.638Z,10.98
2023-04-23T08:28:09.635Z,11.23
2023-04-23T08:31:25.811Z,11.48
2023-04-23T08:34:29.787Z,9.52
2023-04-23T08:37:32.779Z,12.10
2023-04-23T08:40:39.033Z,10.35
2023-04-23T08:43:45.792Z,10.32
2023-04-23T08:46:49.415Z,9.20
2023-04-23T08:49:55.659Z,8.13
2023-04-23T08:52:59.374Z,9.00
2023-04-23T08:56:04.600Z,9.32
2023-04-23T08:59:07.889Z,9.07
2023-04-23T09:02:11.512Z,9.27
2023-04-23T09:05:15.410Z,8.60
2023-04-23T09:08:18.613Z,9.50
2023-04-23T09:11:25.190Z,11.05
2023-04-23T09:14:28.444Z,9.57
2023-04-23T09:17:33.955Z,8.95
2023-04-23T09:20:37.306Z,7.68
2023-04-23T09:23:41.336Z,8.30
2023-04-23T09:26:50.055Z,6.15
2023-04-23T09:29:57.440Z,6.43
2023-04-23T09:33:00.775Z,5.85
2023-04-23T09:36:06.942Z,5.57
2023-04-23T09:39:13.685Z,5.40
2023-04-23T09:42:18.113Z,5.63
2023-04-23T09:45:21.497Z,4.93
2023-04-23T09:48:24.921Z,4.50
2023-04-23T09:51:29.139Z,4.40
2023-04-23T09:57:38.708Z,2.97
2023-04-23T10:00:43.016Z,3.15
2023-04-23T10:03:46.504Z,2.63
2023-04-23T10:07:02.349Z,2.90
2023-04-23T10:10:13.119Z,3.03
2023-04-23T10:13:16.383Z,4.30
2023-04-23T10:16:24.395Z,3.88
2023-04-23T10:19:33.443Z,3.60
2023-04-23T10:22:38.788Z,3.58
2023-04-23T10:25:44.222Z,3.38
2023-04-23T10:28:49.263Z,3.90
2023-04-23T10:31:54.358Z,3.25
2023-04-23T10:34:57.555Z,3.08
2023-04-23T10:38:00.640Z,3.00
2023-04-23T10:41:05.807Z,3.38
2023-04-23T10:44:15.329Z,3.20
2023-04-23T10:47:20.632Z,2.70
2023-04-23T10:50:26.169Z,2.80
2023-04-23T10:53:33.113Z,2.53
2023-04-23T10:56:39.314Z,2.83
2023-04-23T10:59:52.910Z,3.22
2023-04-23T11:02:56.755Z,2.67
2023-04-23T11:06:02.888Z,2.50
2023-04-23T11:09:46.561Z,2.83
2023-04-23T11:12:50.971Z,2.30
2023-04-23T11:16:16.506Z,2.55
2023-04-23T11:19:20.748Z,2.80
2023-04-23T11:25:28.698Z,2.50
2023-04-23T11:28:36.263Z,2.58
2023-04-23T11:31:44.849Z,2.63
2023-04-23T11:37:57.624Z,2.40
2023-04-23T11:41:03.187Z,3.05
2023-04-23T11:44:08.442Z,2.53
2023-04-23T11:47:14.775Z,2.88
2023-04-23T11:50:19.123Z,2.95
2023-04-23T11:53:23.692Z,2.72
2023-04-23T11:56:30.948Z,2.90
2023-04-23T11:59:35.379Z,2.63
2023-04-23T12:02:38.534Z,3.17
2023-04-23T12:05:43.561Z,2.40
2023-04-23T12:08:47.946Z,2.40
2023-04-23T12:11:52.079Z,2.40
2023-04-23T12:15:13.839Z,2.30
2023-04-23T12:18:17.154Z,2.33
2023-04-23T12:21:20.180Z,2.67
2023-04-23T12:24:24.161Z,2.03
2023-04-23T12:27:28.300Z,2.50
2023-04-23T12:33:36.615Z,2.42
2023-04-23T12:36:40.926Z,2.60
2023-04-23T12:39:44.264Z,2.88
2023-04-23T12:42:47.288Z,2.93
2023-04-23T12:45:52.084Z,3.05
2023-04-23T12:49:12.667Z,3.05
2023-04-23T12:52:15.964Z,3.20
2023-04-23T12:55:18.954Z,3.10
2023-04-23T12:58:21.985Z,3.05
2023-04-23T13:01:24.938Z,3.15
2023-04-23T13:04:29.720Z,2.80
2023-04-23T13:07:33.418Z,3.47
2023-04-23T13:10:36.439Z,3.15
2023-04-23T13:13:39.347Z,3.33
2023-04-23T13:16:42.505Z,3.90
2023-04-23T13:19:46.948Z,3.60
2023-04-23T13:22:50.161Z,3.47
2023-04-23T13:26:13.119Z,3.58
2023-04-23T13:29:16.380Z,3.10
2023-04-23T13:32:22.033Z,3.50
2023-04-23T13:35:25.643Z,3.78
2023-04-23T13:38:28.746Z,3.78
2023-04-23T13:41:33.036Z,3.92
2023-04-23T13:44:36.071Z,3.95
2023-04-23T13:47:39.033Z,3.33
2023-04-23T13:50:42.204Z,3.65
2023-04-23T13:53:45.344Z,3.97
2023-04-23T13:56:49.641Z,4.07
2023-04-23T13:59:55.119Z,3.30
2023-04-23T14:02:58.190Z,4.70
2023-04-23T14:06:02.355Z,4.05
2023-04-23T14:12:09.938Z,4.13
2023-04-23T14:15:13.141Z,4.25
2023-04-23T14:18:16.134Z,3.72
2023-04-23T14:21:19.190Z,4.28
2023-04-23T14:24:24.531Z,3.85
2023-04-23T14:27:29.135Z,4.88
2023-04-23T14:30:33.090Z,4.95
2023-04-23T14:33:36.042Z,4.80
2023-04-23T14:36:39.186Z,4.60
2023-04-23T14:39:42.401Z,4.50
2023-04-23T14:42:47.187Z,4.10
2023-04-23T14:45:50.939Z,4.05
2023-04-23T14:49:13.309Z,3.70
2023-04-23T14:52:16.350Z,4.78
2023-04-23T14:55:19.388Z,4.35
2023-04-23T14:58:22.434Z,4.32
2023-04-23T15:01:25.944Z,3.83
2023-04-23T15:04:30.431Z,4.30
2023-04-23T15:07:33.992Z,4.30
2023-04-23T15:10:37.652Z,4.80
2023-04-23T15:13:49.671Z,4.18
2023-04-23T15:16:53.258Z,4.55
2023-04-23T15:20:00.197Z,4.10
2023-04-23T15:23:03.220Z,4.32
2023-04-23T15:26:06.492Z,4.05
2023-04-23T15:29:10.261Z,4.37
2023-04-23T15:32:13.417Z,4.28
2023-04-23T15:35:17.844Z,4.50
2023-04-23T15:38:20.861Z,4.45
2023-04-23T15:41:23.892Z,5.32
2023-04-23T15:44:26.918Z,4.88
2023-04-23T15:47:29.978Z,4.70
2023-04-23T15:50:34.737Z,5.45
2023-04-23T15:53:37.779Z,5.25
2023-04-23T15:56:40.878Z,4.45
2023-04-23T15:59:44.430Z,4.47
2023-04-23T16:02:47.629Z,5.72
2023-04-23T16:05:52.245Z,4.97
2023-04-23T16:09:13.973Z,5.00
2023-04-23T16:12:17.021Z,4.80
2023-04-23T16:15:20.131Z,4.72
2023-04-23T16:18:23.159Z,5.00
2023-04-23T16:21:27.866Z,4.20
2023-04-23T16:24:32.450Z,3.67
2023-04-23T16:27:35.554Z,4.25
2023-04-23T16:30:38.914Z,4.20
2023-04-23T16:33:41.895Z,3.90
2023-04-23T16:36:45.025Z,4.20
2023-04-23T16:39:49.730Z,4.30
2023-04-23T16:42:52.944Z,4.22
2023-04-23T16:45:56.116Z,4.43
2023-04-23T16:48:59.170Z,3.92
2023-04-23T16:52:03.636Z,3.70
2023-04-23T16:55:09.429Z,3.42
2023-04-23T16:58:14.604Z,4.38
2023-04-23T17:01:18.540Z,3.10
2023-04-23T17:04:21.829Z,4.57
2023-04-23T17:07:24.990Z,3.47
2023-04-23T17:10:29.541Z,3.20
2023-04-23T17:13:32.642Z,4.00
2023-04-23T17:16:35.985Z,4.25
2023-04-23T17:19:39.695Z,4.07
2023-04-23T17:22:42.710Z,3.40
2023-04-23T17:25:47.363Z,3.85
2023-04-23T17:28:50.654Z,3.90
2023-04-23T17:31:53.990Z,3.90
2023-04-23T17:35:08.762Z,4.37
2023-04-23T17:38:12.925Z,3.90
2023-04-23T17:41:19.091Z,4.28
2023-04-23T17:44:22.147Z,4.72
2023-04-23T17:47:26.115Z,4.65
2023-04-23T17:50:29.949Z,3.83
2023-04-23T17:53:32.902Z,4.00
2023-04-23T17:56:37.280Z,4.28
2023-04-23T17:59:40.583Z,3.70
2023-04-23T18:02:43.930Z,4.87
2023-04-23T18:05:47.068Z,4.37
2023-04-23T18:08:50.102Z,4.00
2023-04-23T18:11:56.117Z,4.35
2023-04-23T18:14:59.427Z,4.22
2023-04-23T18:18:03.054Z,4.57
2023-04-23T18:21:06.138Z,4.45
2023-04-23T18:24:09.199Z,4.07
2023-04-23T18:27:13.785Z,4.97
2023-04-23T18:30:17.672Z,4.78
2023-04-23T18:33:33.551Z,5.45
2023-04-23T18:36:42.686Z,5.32
2023-04-23T18:39:45.707Z,5.10
2023-04-23T18:42:49.992Z,4.85
2023-04-23T18:49:00.390Z,4.88
2023-04-23T18:52:03.450Z,4.57
2023-04-23T18:55:07.074Z,4.22
2023-04-23T18:58:12.394Z,4.57
2023-04-23T19:01:15.735Z,4.68
2023-04-23T19:04:19.094Z,4.70
2023-04-23T19:07:22.186Z,4.27
2023-04-23T19:10:25.721Z,4.10
2023-04-23T19:13:30.083Z,5.78
2023-04-23T19:16:33.167Z,4.05
2023-04-23T19:19:36.275Z,4.07
2023-04-23T19:22:41.878Z,3.92
2023-04-23T19:25:45.649Z,4.78
2023-04-23T19:28:50.093Z,4.83
2023-04-23T19:31:53.510Z,5.68
2023-04-23T19:34:56.664Z,5.10
2023-04-23T19:37:59.741Z,5.50
2023-04-23T19:41:03.143Z,4.95
2023-04-23T19:44:07.409Z,5.20
2023-04-23T19:50:13.769Z,5.38
2023-04-23T19:53:16.935Z,5.22
2023-04-23T19:56:22.817Z,4.97
2023-04-23T19:59:27.320Z,4.93
2023-04-23T20:02:30.386Z,5.55
2023-04-23T20:05:33.696Z,5.18
2023-04-23T20:08:42.424Z,5.65
2023-04-23T20:11:46.013Z,4.88
2023-04-23T20:14:50.384Z,6.32
2023-04-23T20:17:53.796Z,5.50
2023-04-23T20:20:56.810Z,5.80
2023-04-23T20:23:59.719Z,5.55
2023-04-23T20:27:02.887Z,5.28
2023-04-23T20:30:11.543Z,6.20
2023-04-23T20:33:16.060Z,6.00
2023-04-23T20:36:19.922Z,6.03
2023-04-23T20:39:24.204Z,6.68
2023-04-23T20:42:28.890Z,5.90
2023-04-23T20:45:34.437Z,5.72
2023-04-23T20:48:37.743Z,6.40
2023-04-23T20:51:41.135Z,6.33
2023-04-23T20:54:44.193Z,5.93
2023-04-23T20:57:47.205Z,6.95
2023-04-23T21:00:51.986Z,6.82
2023-04-23T21:03:55.606Z,6.63
2023-04-23T21:06:59.195Z,6.32
2023-04-23T21:10:02.258Z,7.38
2023-04-23T21:13:06.472Z,6.40
2023-04-23T21:19:14.421Z,7.63
2023-04-23T21:22:17.881Z,7.43
2023-04-23T21:25:20.916Z,7.87
2023-04-23T21:28:24.265Z,7.60
2023-04-23T21:31:38.449Z,7.57
2023-04-23T21:34:41.530Z,7.43
2023-04-23T21:37:44.652Z,7.80
2023-04-23T21:40:48.010Z,8.38
2023-04-23T21:43:50.980Z,8.17
2023-04-23T21:47:13.878Z,8.07
2023-04-23T21:50:17.343Z,7.82
2023-04-23T21:53:21.362Z,8.00
2023-04-23T21:56:24.786Z,8.30
2023-04-23T21:59:27.846Z,8.17
2023-04-23T22:02:32.467Z,8.68
2023-04-23T22:05:36.917Z,7.50
2023-04-23T22:08:40.531Z,7.20
2023-04-23T22:11:51.963Z,7.25
2023-04-23T22:15:05.120Z,7.60
2023-04-23T22:18:09.517Z,7.32
2023-04-23T22:21:13.165Z,7.53
2023-04-23T22:24:16.503Z,8.82
2023-04-23T22:27:19.521Z,8.17
2023-04-23T22:30:22.609Z,9.40
2023-04-23T22:33:28.403Z,9.90
2023-04-23T22:36:32.562Z,11.15
2023-04-23T22:39:35.685Z,11.30
2023-04-23T22:42:38.690Z,11.18
2023-04-23T22:45:41.786Z,11.93
2023-04-23T22:48:47.922Z,12.77
2023-04-23T22:51:51.121Z,13.98
2023-04-23T22:55:13.902Z,12.80
2023-04-23T22:58:17.165Z,11.65
2023-04-23T23:01:20.924Z,11.88
2023-04-23T23:04:24.016Z,9.95
2023-04-23T23:07:27.057Z,11.65
2023-04-23T23:10:31.663Z,11.93
2023-04-23T23:13:34.883Z,10.98
2023-04-23T23:16:37.859Z,11.43
2023-04-23T23:19:41.232Z,10.00
2023-04-23T23:22:44.663Z,9.80
2023-04-23T23:25:49.044Z,9.88
2023-04-23T23:28:52.095Z,10.35
2023-04-23T23:32:13.876Z,10.32
2023-04-23T23:39:18.865Z,9.90
2023-04-23T23:42:22.119Z,10.00
2023-04-23T23:45:25.179Z,10.10
2023-04-23T23:48:29.612Z,9.77
2023-04-23T23:51:32.901Z,10.20
2023-04-23T23:54:37.252Z,10.32
2023-04-23T23:57:41.120Z,9.82
